createdAt,value
2019-04-16T00:00:46.500Z,7.98
2019-04-16T00:03:15.285Z,8.00
2019-04-16T00:05:45.306Z,8.00
2019-04-16T00:08:27.732Z,8.00
2019-04-16T00:10:59.225Z,7.93
2019-04-16T00:13:35.514Z,7.92
2019-04-16T00:16:04.110Z,7.88
2019-04-16T00:18:33.001Z,7.84
2019-04-16T00:21:03.054Z,7.81
2019-04-16T00:23:49.321Z,7.75
2019-04-16T00:26:17.841Z,7.75
2019-04-16T00:28:46.248Z,7.76
2019-04-16T00:31:14.747Z,7.77
2019-04-16T00:33:43.554Z,7.73
2019-04-16T00:36:12.056Z,7.69
2019-04-16T00:38:41.297Z,7.60
2019-04-16T00:41:10.339Z,7.59
2019-04-16T00:43:38.789Z,7.55
2019-04-16T00:46:08.482Z,7.54
2019-04-16T00:48:37.288Z,7.52
2019-04-16T00:51:05.824Z,7.50
2019-04-16T00:53:36.344Z,7.42
2019-04-16T00:56:05.220Z,7.32
2019-04-16T00:58:33.915Z,7.34
2019-04-16T01:01:02.601Z,7.34
2019-04-16T01:03:30.995Z,7.30
2019-04-16T01:05:59.508Z,7.29
2019-04-16T01:08:28.254Z,7.12
2019-04-16T01:10:56.692Z,7.16
2019-04-16T01:13:25.661Z,7.16
2019-04-16T01:15:54.114Z,7.16
2019-04-16T01:18:22.543Z,7.18
2019-04-16T01:20:51.063Z,7.15
2019-04-16T01:23:19.491Z,7.10
2019-04-16T01:25:47.963Z,7.11
2019-04-16T01:28:20.819Z,7.09
2019-04-16T01:30:51.456Z,7.07
2019-04-16T01:33:27.618Z,7.01
2019-04-16T01:35:57.756Z,7.04
2019-04-16T01:38:34.105Z,6.93
2019-04-16T01:41:04.202Z,6.98
2019-04-16T01:43:32.633Z,6.98
2019-04-16T01:46:02.353Z,6.93
2019-04-16T01:48:31.328Z,6.89
2019-04-16T01:50:59.709Z,6.91
2019-04-16T01:53:28.595Z,6.91
2019-04-16T01:55:57.730Z,6.92
2019-04-16T01:58:26.573Z,6.84
2019-04-16T02:00:54.999Z,6.75
2019-04-16T02:03:23.475Z,6.73
2019-04-16T02:05:54.622Z,6.84
2019-04-16T02:08:22.452Z,6.89
2019-04-16T02:10:51.235Z,6.87
2019-04-16T02:13:19.682Z,6.82
2019-04-16T02:15:50.622Z,6.83
2019-04-16T02:18:18.631Z,6.82
2019-04-16T02:20:47.132Z,6.80
2019-04-16T02:23:16.713Z,6.74
2019-04-16T02:25:48.511Z,6.74
2019-04-16T02:28:16.451Z,6.72
2019-04-16T02:30:45.248Z,6.68
2019-04-16T02:33:13.739Z,6.68
2019-04-16T02:35:42.511Z,6.68
2019-04-16T02:38:13.195Z,6.66
2019-04-16T02:40:41.528Z,6.61
2019-04-16T02:43:10.102Z,6.68
2019-04-16T02:45:38.487Z,6.66
2019-04-16T02:48:07.475Z,6.68
2019-04-16T02:50:43.087Z,6.67
2019-04-16T02:53:15.819Z,6.58
2019-04-16T02:56:01.141Z,6.60
2019-04-16T02:58:35.293Z,6.65
2019-04-16T03:01:05.536Z,6.66
2019-04-16T03:03:44.458Z,6.59
2019-04-16T03:06:13.350Z,6.58
2019-04-16T03:08:41.725Z,6.58
2019-04-16T03:11:10.255Z,6.50
2019-04-16T03:13:39.205Z,6.47
2019-04-16T03:16:15.369Z,6.51
2019-04-16T03:18:47.477Z,6.45
2019-04-16T03:21:15.485Z,6.41
2019-04-16T03:23:43.948Z,6.47
2019-04-16T03:26:16.371Z,6.44
2019-04-16T03:28:42.798Z,6.49
2019-04-16T03:31:19.469Z,6.47
2019-04-16T03:33:48.585Z,6.44
2019-04-16T03:36:12.652Z,6.36
2019-04-16T03:38:42.109Z,6.39
2019-04-16T03:41:10.977Z,6.38
2019-04-16T03:43:39.564Z,6.40
2019-04-16T03:46:12.080Z,6.30
2019-04-16T03:48:39.287Z,6.31
2019-04-16T03:51:07.731Z,6.29
2019-04-16T03:53:36.428Z,6.34
2019-04-16T03:56:04.893Z,6.33
2019-04-16T03:58:35.520Z,6.26
2019-04-16T04:01:03.591Z,6.26
2019-04-16T04:03:32.036Z,6.27
2019-04-16T04:06:03.563Z,6.27
2019-04-16T04:08:30.805Z,6.23
2019-04-16T04:10:59.204Z,6.18
2019-04-16T04:13:27.638Z,6.10
2019-04-16T04:15:58.550Z,6.14
2019-04-16T04:18:27.301Z,6.13
2019-04-16T04:20:55.707Z,6.15
2019-04-16T04:23:25.479Z,6.16
2019-04-16T04:25:54.400Z,6.14
2019-04-16T04:28:22.860Z,6.15
2019-04-16T04:30:51.655Z,6.14
2019-04-16T04:33:41.682Z,6.10
2019-04-16T04:36:10.224Z,6.07
2019-04-16T04:38:39.117Z,6.04
2019-04-16T04:41:08.170Z,6.05
2019-04-16T04:43:36.782Z,6.01
2019-04-16T04:46:05.379Z,5.99
2019-04-16T04:48:33.884Z,6.00
2019-04-16T04:51:06.870Z,5.94
2019-04-16T04:53:32.875Z,6.00
2019-04-16T04:56:01.358Z,6.01
2019-04-16T04:58:34.034Z,6.01
2019-04-16T05:01:01.614Z,6.03
2019-04-16T05:03:31.633Z,5.98
2019-04-16T05:06:04.401Z,5.99
2019-04-16T05:08:32.764Z,5.97
2019-04-16T05:11:02.977Z,6.00
2019-04-16T05:13:31.348Z,5.97
2019-04-16T05:16:01.987Z,5.98
2019-04-16T05:18:29.922Z,6.00
2019-04-16T05:20:58.401Z,6.10
2019-04-16T05:23:26.817Z,6.06
2019-04-16T05:25:55.235Z,6.13
2019-04-16T05:28:23.689Z,6.11
2019-04-16T05:30:53.105Z,6.04
2019-04-16T05:33:21.965Z,6.04
2019-04-16T05:35:50.563Z,6.03
2019-04-16T05:38:20.458Z,6.01
2019-04-16T05:40:49.708Z,5.96
2019-04-16T05:43:18.366Z,5.92
2019-04-16T05:45:47.083Z,6.01
2019-04-16T05:48:15.552Z,6.10
2019-04-16T05:50:44.025Z,6.14
2019-04-16T05:53:13.549Z,6.35
2019-04-16T05:55:50.562Z,6.50
2019-04-16T05:58:19.221Z,6.72
2019-04-16T06:00:49.362Z,6.99
2019-04-16T06:03:20.665Z,7.22
2019-04-16T06:05:48.358Z,7.38
2019-04-16T06:08:17.965Z,7.58
2019-04-16T06:10:50.018Z,7.92
2019-04-16T06:13:27.425Z,8.05
2019-04-16T06:15:57.515Z,8.27
2019-04-16T06:18:38.113Z,8.17
2019-04-16T06:21:17.387Z,8.15
2019-04-16T06:24:04.212Z,8.33
2019-04-16T06:26:47.374Z,8.58
2019-04-16T06:29:34.088Z,8.49
2019-04-16T06:32:20.609Z,8.76
2019-04-16T06:35:07.108Z,9.15
2019-04-16T06:37:37.275Z,9.58
2019-04-16T06:40:24.221Z,10.09
2019-04-16T06:42:54.834Z,10.61
2019-04-16T06:45:27.589Z,10.98
2019-04-16T06:48:03.568Z,10.96
2019-04-16T06:50:39.640Z,11.12
2019-04-16T06:53:05.701Z,11.24
2019-04-16T06:55:44.682Z,11.48
2019-04-16T06:58:18.366Z,11.70
2019-04-16T07:01:06.792Z,11.87
2019-04-16T07:03:48.958Z,11.96
2019-04-16T07:06:37.022Z,12.22
2019-04-16T07:09:40.490Z,12.20
2019-04-16T07:11:59.191Z,12.59
2019-04-16T07:14:28.031Z,12.74
2019-04-16T07:16:59.901Z,12.38
2019-04-16T07:19:26.649Z,12.80
2019-04-16T07:21:55.161Z,12.96
2019-04-16T07:24:24.007Z,13.37
2019-04-16T07:26:56.548Z,13.60
2019-04-16T07:29:31.607Z,13.98
2019-04-16T07:32:14.021Z,14.02
2019-04-16T07:34:44.099Z,13.93
2019-04-16T07:37:20.199Z,13.90
2019-04-16T07:40:10.232Z,13.92
2019-04-16T07:42:51.266Z,13.88
2019-04-16T07:45:19.692Z,14.15
2019-04-16T07:48:06.909Z,14.43
2019-04-16T07:50:46.121Z,14.52
2019-04-16T07:53:31.097Z,14.53
2019-04-16T07:56:04.160Z,14.92
2019-04-16T07:58:32.653Z,14.97
2019-04-16T08:01:01.055Z,15.15
2019-04-16T08:03:29.425Z,15.12
2019-04-16T08:05:57.887Z,15.34
2019-04-16T08:08:26.739Z,15.65
2019-04-16T08:10:55.333Z,15.67
2019-04-16T08:13:23.870Z,15.96
2019-04-16T08:15:52.425Z,15.68
2019-04-16T08:18:20.910Z,15.78
2019-04-16T08:21:00.481Z,16.03
2019-04-16T08:23:40.059Z,15.56
2019-04-16T08:26:13.018Z,15.97
2019-04-16T08:28:38.610Z,16.11
2019-04-16T08:31:12.213Z,16.45
2019-04-16T08:33:38.900Z,16.70
2019-04-16T08:36:07.461Z,16.84
2019-04-16T08:38:35.881Z,16.97
2019-04-16T08:41:04.344Z,17.56
2019-04-16T08:43:32.779Z,17.73
2019-04-16T08:46:01.561Z,18.65
2019-04-16T08:48:29.962Z,19.56
2019-04-16T08:50:59.214Z,19.76
2019-04-16T08:53:28.296Z,19.46
2019-04-16T08:55:56.823Z,19.61
2019-04-16T08:58:25.467Z,19.23
2019-04-16T09:00:53.966Z,18.30
2019-04-16T09:03:22.502Z,18.84
2019-04-16T09:05:51.056Z,19.76
2019-04-16T09:08:32.844Z,19.55
2019-04-16T09:11:03.343Z,18.48
2019-04-16T09:13:41.124Z,17.73
2019-04-16T09:16:11.059Z,18.79
2019-04-16T09:18:43.904Z,17.98
2019-04-16T09:21:12.412Z,17.62
2019-04-16T09:23:42.517Z,17.32
2019-04-16T09:26:23.627Z,17.59
2019-04-16T09:29:01.500Z,17.92
2019-04-16T09:31:33.779Z,18.52
2019-04-16T09:34:20.200Z,19.01
2019-04-16T09:36:56.270Z,18.83
2019-04-16T09:39:44.747Z,19.82
2019-04-16T09:42:13.398Z,19.46
2019-04-16T09:44:41.926Z,20.43
2019-04-16T09:47:10.432Z,20.70
2019-04-16T09:49:38.966Z,20.61
2019-04-16T09:52:07.391Z,20.54
2019-04-16T09:54:35.773Z,19.94
2019-04-16T09:57:04.495Z,18.66
2019-04-16T09:59:34.671Z,17.90
2019-04-16T10:02:04.764Z,18.39
2019-04-16T10:04:33.308Z,18.80
2019-04-16T10:07:01.877Z,18.09
2019-04-16T10:09:40.247Z,18.49
2019-04-16T10:12:08.817Z,17.60
2019-04-16T10:14:37.329Z,17.16
2019-04-16T10:17:07.715Z,16.49
2019-04-16T10:19:36.196Z,16.55
2019-04-16T10:22:04.702Z,16.70
2019-04-16T10:24:34.749Z,18.48
2019-04-16T10:27:04.489Z,19.36
2019-04-16T10:29:33.091Z,19.55
2019-04-16T10:32:01.531Z,18.55
2019-04-16T10:34:30.027Z,17.55
2019-04-16T10:36:58.512Z,18.52
2019-04-16T10:39:31.758Z,19.09
2019-04-16T10:42:19.671Z,18.52
2019-04-16T10:45:01.575Z,19.00
2019-04-16T10:47:35.802Z,18.49
2019-04-16T10:50:18.646Z,19.28
2019-04-16T10:53:00.628Z,18.45
2019-04-16T10:55:33.449Z,18.83
2019-04-16T10:58:06.192Z,18.41
2019-04-16T11:00:48.329Z,18.80
2019-04-16T11:03:18.336Z,20.04
2019-04-16T11:05:48.417Z,21.10
2019-04-16T11:08:16.774Z,21.73
2019-04-16T11:10:45.233Z,21.38
2019-04-16T11:13:15.403Z,20.72
2019-04-16T11:15:44.045Z,20.90
2019-04-16T11:18:12.589Z,20.36
2019-04-16T11:20:41.240Z,21.77
2019-04-16T11:23:09.926Z,20.31
2019-04-16T11:25:38.704Z,20.15
2019-04-16T11:28:07.291Z,21.01
2019-04-16T11:30:37.391Z,21.88
2019-04-16T11:33:05.885Z,23.61
2019-04-16T11:35:34.742Z,25.28
2019-04-16T11:38:03.194Z,26.77
2019-04-16T11:40:31.737Z,26.93
2019-04-16T11:43:00.316Z,26.63
2019-04-16T11:45:28.896Z,25.41
2019-04-16T11:47:57.341Z,25.30
2019-04-16T11:50:26.084Z,27.38
2019-04-16T11:52:57.466Z,28.47
2019-04-16T11:55:25.231Z,27.80
2019-04-16T11:57:54.029Z,29.70
2019-04-16T12:00:24.452Z,27.64
2019-04-16T12:02:57.272Z,28.49
2019-04-16T12:05:27.351Z,30.71
2019-04-16T12:07:57.446Z,30.64
2019-04-16T12:10:39.271Z,31.07
2019-04-16T12:13:12.250Z,29.87
2019-04-16T12:15:45.160Z,27.63
2019-04-16T12:18:23.627Z,29.29
2019-04-16T12:20:54.093Z,29.44
2019-04-16T12:23:30.057Z,29.47
2019-04-16T12:26:03.784Z,28.81
2019-04-16T12:28:33.810Z,28.74
2019-04-16T12:31:16.275Z,28.99
2019-04-16T12:33:44.740Z,29.37
2019-04-16T12:36:17.687Z,31.95
2019-04-16T12:38:56.756Z,29.84
2019-04-16T12:41:35.929Z,27.72
2019-04-16T12:44:15.094Z,28.55
2019-04-16T12:46:47.898Z,29.68
2019-04-16T12:49:33.796Z,30.21
2019-04-16T12:52:17.216Z,30.21
2019-04-16T12:54:59.969Z,30.16
2019-04-16T12:57:33.156Z,32.50
2019-04-16T13:00:26.115Z,26.96
2019-04-16T13:02:55.932Z,26.96
2019-04-16T13:05:26.254Z,26.75
2019-04-16T13:08:14.667Z,26.80
2019-04-16T13:10:53.456Z,26.19
2019-04-16T13:13:23.855Z,24.46
2019-04-16T13:15:54.185Z,22.63
2019-04-16T13:18:24.228Z,22.91
2019-04-16T13:21:03.909Z,22.54
2019-04-16T13:23:32.347Z,21.24
2019-04-16T13:26:02.426Z,20.53
2019-04-16T13:28:30.876Z,19.66
2019-04-16T13:30:59.257Z,19.06
2019-04-16T13:33:27.619Z,19.43
2019-04-16T13:35:56.095Z,18.65
2019-04-16T13:38:28.860Z,18.95
2019-04-16T13:40:57.221Z,19.80
2019-04-16T13:43:27.664Z,19.75
2019-04-16T13:45:58.227Z,20.44
2019-04-16T13:48:44.249Z,19.66
2019-04-16T13:51:18.679Z,19.63
2019-04-16T13:53:46.100Z,19.38
2019-04-16T13:56:24.942Z,18.77
2019-04-16T13:58:56.101Z,18.69
2019-04-16T14:01:39.256Z,18.34
2019-04-16T14:04:06.054Z,18.42
2019-04-16T14:06:34.596Z,19.03
2019-04-16T14:09:03.856Z,18.94
2019-04-16T14:11:32.579Z,19.37
2019-04-16T14:14:01.116Z,20.15
2019-04-16T14:16:29.954Z,19.55
2019-04-16T14:18:58.956Z,18.65
2019-04-16T14:21:27.446Z,18.42
2019-04-16T14:23:55.991Z,19.02
2019-04-16T14:26:24.373Z,19.87
2019-04-16T14:28:52.751Z,20.54
2019-04-16T14:31:22.878Z,21.62
2019-04-16T14:33:59.130Z,21.57
2019-04-16T14:36:27.633Z,21.64
2019-04-16T14:38:57.866Z,21.80
2019-04-16T14:41:26.337Z,21.61
2019-04-16T14:44:02.111Z,22.12
2019-04-16T14:46:29.765Z,22.21
2019-04-16T14:48:58.167Z,22.95
2019-04-16T14:51:26.776Z,22.50
2019-04-16T14:54:02.942Z,21.89
2019-04-16T14:56:42.230Z,22.02
2019-04-16T14:59:29.884Z,22.40
2019-04-16T15:01:47.145Z,22.29
2019-04-16T15:04:25.967Z,21.91
2019-04-16T15:06:59.379Z,21.64
2019-04-16T15:09:32.005Z,21.37
2019-04-16T15:12:07.970Z,21.34
2019-04-16T15:14:36.607Z,21.03
2019-04-16T15:17:26.313Z,20.87
2019-04-16T15:20:01.053Z,20.87
2019-04-16T15:22:31.079Z,20.02
2019-04-16T15:25:09.983Z,19.46
2019-04-16T15:27:40.189Z,19.05
2019-04-16T15:30:13.276Z,18.59
2019-04-16T15:32:43.444Z,18.40
2019-04-16T15:35:14.906Z,18.36
2019-04-16T15:37:45.587Z,18.22
2019-04-16T15:40:32.534Z,18.24
2019-04-16T15:43:19.609Z,18.10
2019-04-16T15:46:25.096Z,17.74
2019-04-16T15:48:50.673Z,17.56
2019-04-16T15:51:37.581Z,17.45
2019-04-16T15:54:10.685Z,17.38
2019-04-16T15:56:57.448Z,17.21
2019-04-16T15:59:43.746Z,17.04
2019-04-16T16:02:22.366Z,17.03
2019-04-16T16:04:55.220Z,17.01
2019-04-16T16:07:24.435Z,17.12
2019-04-16T16:10:13.942Z,17.02
2019-04-16T16:12:40.628Z,16.95
2019-04-16T16:15:10.045Z,16.94
2019-04-16T16:17:38.502Z,16.86
2019-04-16T16:20:10.377Z,16.81
2019-04-16T16:22:38.024Z,16.79
2019-04-16T16:25:07.215Z,16.66
2019-04-16T16:27:41.213Z,16.54
2019-04-16T16:30:14.447Z,16.56
2019-04-16T16:32:42.076Z,16.66
2019-04-16T16:35:16.683Z,16.52
2019-04-16T16:37:42.358Z,16.38
2019-04-16T16:40:11.884Z,16.25
2019-04-16T16:42:42.555Z,16.12
2019-04-16T16:45:11.396Z,16.09
2019-04-16T16:47:40.369Z,15.93
2019-04-16T16:50:11.515Z,15.95
2019-04-16T16:52:59.863Z,15.87
2019-04-16T16:55:41.701Z,15.92
2019-04-16T16:58:11.929Z,15.78
2019-04-16T17:00:50.920Z,15.73
2019-04-16T17:03:37.269Z,15.69
2019-04-16T17:06:07.369Z,15.78
2019-04-16T17:08:38.063Z,15.76
2019-04-16T17:11:15.745Z,15.60
2019-04-16T17:13:36.202Z,15.52
2019-04-16T17:16:04.789Z,15.48
2019-04-16T17:18:33.647Z,15.40
2019-04-16T17:21:02.737Z,15.34
2019-04-16T17:23:31.198Z,15.42
2019-04-16T17:25:59.601Z,15.37
2019-04-16T17:28:28.061Z,15.37
2019-04-16T17:30:56.455Z,15.34
2019-04-16T17:33:24.815Z,15.39
2019-04-16T17:35:53.387Z,15.31
2019-04-16T17:38:21.814Z,15.31
2019-04-16T17:40:58.078Z,15.27
2019-04-16T17:43:38.727Z,15.16
2019-04-16T17:46:14.473Z,15.16
2019-04-16T17:51:32.112Z,15.20
2019-04-16T17:54:10.866Z,15.18
2019-04-16T17:56:57.372Z,15.09
2019-04-16T17:59:29.516Z,15.07
2019-04-16T18:02:02.421Z,15.09
2019-04-16T18:04:32.493Z,15.01
2019-04-16T18:07:20.402Z,14.97
2019-04-16T18:10:01.525Z,14.95
2019-04-16T18:12:47.138Z,14.87
2019-04-16T18:15:19.636Z,14.81
2019-04-16T18:17:56.279Z,14.92
2019-04-16T18:20:35.083Z,14.85
2019-04-16T18:23:20.292Z,14.79
2019-04-16T18:25:56.745Z,14.73
2019-04-16T18:28:40.305Z,14.66
2019-04-16T18:31:10.502Z,14.61
2019-04-16T18:33:43.338Z,14.63
2019-04-16T18:36:14.199Z,14.52
2019-04-16T18:38:45.626Z,14.41
2019-04-16T18:41:19.411Z,14.37
2019-04-16T18:43:52.610Z,14.43
2019-04-16T18:46:30.197Z,14.35
2019-04-16T18:49:03.124Z,14.24
2019-04-16T18:51:33.499Z,14.28
2019-04-16T18:54:01.720Z,14.27
2019-04-16T18:56:30.237Z,14.22
2019-04-16T18:58:58.971Z,14.18
2019-04-16T19:01:29.713Z,14.11
2019-04-16T19:03:59.403Z,14.06
2019-04-16T19:06:27.886Z,14.05
2019-04-16T19:08:56.441Z,14.06
2019-04-16T19:11:24.970Z,13.95
2019-04-16T19:13:53.687Z,13.88
2019-04-16T19:16:22.562Z,13.87
2019-04-16T19:18:51.015Z,13.86
2019-04-16T19:21:19.511Z,13.84
2019-04-16T19:23:47.978Z,13.78
2019-04-16T19:26:16.392Z,13.74
2019-04-16T19:28:45.548Z,13.72
2019-04-16T19:31:14.266Z,13.72
2019-04-16T19:33:42.694Z,13.70
2019-04-16T19:36:11.528Z,13.61
2019-04-16T19:38:40.726Z,13.54
2019-04-16T19:41:09.312Z,13.53
2019-04-16T19:43:37.789Z,13.46
2019-04-16T19:46:06.528Z,13.39
2019-04-16T19:48:36.246Z,13.45
2019-04-16T19:51:07.372Z,13.35
2019-04-16T19:53:35.107Z,13.26
2019-04-16T19:56:03.570Z,13.27
2019-04-16T19:58:32.010Z,13.26
2019-04-16T20:01:00.583Z,13.20
2019-04-16T20:03:30.534Z,13.16
2019-04-16T20:05:59.482Z,13.14
2019-04-16T20:08:27.839Z,13.12
2019-04-16T20:10:56.318Z,13.12
2019-04-16T20:13:24.773Z,13.12
2019-04-16T20:15:53.128Z,13.07
2019-04-16T20:18:23.504Z,13.02
2019-04-16T20:20:51.867Z,12.99
2019-04-16T20:23:20.321Z,12.97
2019-04-16T20:25:49.124Z,12.93
2019-04-16T20:28:17.573Z,12.85
2019-04-16T20:30:46.084Z,12.91
2019-04-16T20:33:14.573Z,12.84
2019-04-16T20:35:43.139Z,12.88
2019-04-16T20:38:11.652Z,12.83
2019-04-16T20:40:40.232Z,12.79
2019-04-16T20:43:08.868Z,12.79
2019-04-16T20:45:37.399Z,12.81
2019-04-16T20:48:09.037Z,12.74
2019-04-16T20:50:36.354Z,12.68
2019-04-16T20:53:07.333Z,12.74
2019-04-16T20:55:35.016Z,12.69
2019-04-16T20:58:03.428Z,12.60
2019-04-16T21:00:36.279Z,12.58
2019-04-16T21:03:04.915Z,12.53
2019-04-16T21:05:35.817Z,12.55
2019-04-16T21:08:03.637Z,12.47
2019-04-16T21:10:35.442Z,12.52
2019-04-16T21:13:02.208Z,12.45
2019-04-16T21:15:30.885Z,12.36
2019-04-16T21:17:59.508Z,12.41
2019-04-16T21:20:27.924Z,12.33
2019-04-16T21:22:57.389Z,12.36
2019-04-16T21:25:26.515Z,12.27
2019-04-16T21:28:02.735Z,12.28
2019-04-16T21:30:31.264Z,12.23
2019-04-16T21:33:07.058Z,12.18
2019-04-16T21:35:37.235Z,12.13
2019-04-16T21:38:19.061Z,12.13
2019-04-16T21:40:47.514Z,12.13
2019-04-16T21:43:16.358Z,12.01
2019-04-16T21:45:45.563Z,12.04
2019-04-16T21:48:14.236Z,12.01
2019-04-16T21:50:44.593Z,12.01
2019-04-16T21:53:13.104Z,11.90
2019-04-16T21:55:41.545Z,11.86
2019-04-16T21:58:09.970Z,11.78
2019-04-16T22:00:40.073Z,11.74
2019-04-16T22:03:16.186Z,11.75
2019-04-16T22:05:48.173Z,11.70
2019-04-16T22:08:15.139Z,11.68
2019-04-16T22:10:46.465Z,11.68
2019-04-16T22:13:19.100Z,11.64
2019-04-16T22:15:44.539Z,11.59
2019-04-16T22:18:13.031Z,11.52
2019-04-16T22:20:41.806Z,11.55
2019-04-16T22:23:10.495Z,11.54
2019-04-16T22:25:38.940Z,11.46
2019-04-16T22:28:11.426Z,11.45
2019-04-16T22:30:38.092Z,11.47
2019-04-16T22:33:07.463Z,11.40
2019-04-16T22:35:36.176Z,11.43
2019-04-16T22:38:05.283Z,11.37
2019-04-16T22:40:51.688Z,11.28
2019-04-16T22:43:39.661Z,11.28
2019-04-16T22:46:12.126Z,11.24
2019-04-16T22:48:42.368Z,11.15
2019-04-16T22:51:11.680Z,11.13
2019-04-16T22:53:40.242Z,11.14
2019-04-16T22:56:09.545Z,11.09
2019-04-16T22:58:53.038Z,11.04
2019-04-16T23:01:23.109Z,11.03
2019-04-16T23:03:53.378Z,11.04
2019-04-16T23:06:21.767Z,10.94
2019-04-16T23:08:50.205Z,10.96
2019-04-16T23:11:23.241Z,10.90
2019-04-16T23:13:49.363Z,10.89
2019-04-16T23:16:18.085Z,10.86
2019-04-16T23:18:48.818Z,10.83
2019-04-16T23:21:16.548Z,10.81
2019-04-16T23:23:47.633Z,10.85
2019-04-16T23:26:15.776Z,10.81
2019-04-16T23:28:44.131Z,10.80
2019-04-16T23:31:12.844Z,10.71
2019-04-16T23:33:41.213Z,10.73
2019-04-16T23:36:09.593Z,10.73
2019-04-16T23:38:37.973Z,10.67
2019-04-16T23:41:07.169Z,10.75
2019-04-16T23:43:46.311Z,10.72
2019-04-16T23:46:24.905Z,10.73
2019-04-16T23:49:01.183Z,10.64
2019-04-16T23:51:39.715Z,10.58
2019-04-16T23:54:26.089Z,10.57
2019-04-16T23:56:56.186Z,10.57
2019-04-16T23:59:42.746Z,10.45
